sensor_id;sensor_type;location;lat;lon;timestamp;P1;durP1;ratioP1;P2;durP2;ratioP2
5876;SDS011;2964;42.144;24.730;2023-03-03T00:00:39;56.57;;;29.80;;
5876;SDS011;2964;42.144;24.730;2023-03-03T00:03:07;53.47;;;29.30;;
5876;SDS011;2964;42.144;24.730;2023-03-03T00:05:36;54.63;;;27.70;;
5876;SDS011;2964;42.144;24.730;2023-03-03T00:08:03;58.33;;;29.10;;
5876;SDS011;2964;42.144;24.730;2023-03-03T00:10:30;54.27;;;28.90;;
5876;SDS011;2964;42.144;24.730;2023-03-03T00:12:56;58.17;;;28.47;;
5876;SDS011;2964;42.144;24.730;2023-03-03T00:15:24;61.97;;;30.93;;
5876;SDS011;2964;42.144;24.730;2023-03-03T00:17:52;55.93;;;28.13;;
5876;SDS011;2964;42.144;24.730;2023-03-03T00:20:30;55.17;;;30.17;;
5876;SDS011;2964;42.144;24.730;2023-03-03T00:23:16;51.63;;;27.13;;
5876;SDS011;2964;42.144;24.730;2023-03-03T00:25:50;57.87;;;31.00;;
5876;SDS011;2964;42.144;24.730;2023-03-03T00:28:25;49.90;;;27.07;;
5876;SDS011;2964;42.144;24.730;2023-03-03T00:30:54;52.23;;;29.10;;
5876;SDS011;2964;42.144;24.730;2023-03-03T00:33:28;49.03;;;26.03;;
5876;SDS011;2964;42.144;24.730;2023-03-03T00:36:20;58.07;;;28.00;;
5876;SDS011;2964;42.144;24.730;2023-03-03T00:38:52;60.47;;;30.53;;
5876;SDS011;2964;42.144;24.730;2023-03-03T00:41:21;55.20;;;28.97;;
5876;SDS011;2964;42.144;24.730;2023-03-03T00:43:49;55.30;;;29.67;;
5876;SDS011;2964;42.144;24.730;2023-03-03T00:46:17;52.30;;;27.67;;
5876;SDS011;2964;42.144;24.730;2023-03-03T00:48:46;53.33;;;27.20;;
5876;SDS011;2964;42.144;24.730;2023-03-03T00:53:59;46.00;;;26.30;;
5876;SDS011;2964;42.144;24.730;2023-03-03T00:56:26;53.73;;;29.20;;
5876;SDS011;2964;42.144;24.730;2023-03-03T00:58:53;54.77;;;28.17;;
5876;SDS011;2964;42.144;24.730;2023-03-03T01:01:19;51.70;;;27.27;;
5876;SDS011;2964;42.144;24.730;2023-03-03T01:03:48;47.43;;;25.93;;
5876;SDS011;2964;42.144;24.730;2023-03-03T01:06:15;54.67;;;29.20;;
5876;SDS011;2964;42.144;24.730;2023-03-03T01:08:41;53.10;;;28.33;;
5876;SDS011;2964;42.144;24.730;2023-03-03T01:11:09;69.13;;;27.53;;
5876;SDS011;2964;42.144;24.730;2023-03-03T01:13:41;48.27;;;27.93;;
5876;SDS011;2964;42.144;24.730;2023-03-03T01:16:11;50.50;;;27.27;;
5876;SDS011;2964;42.144;24.730;2023-03-03T01:18:37;51.87;;;26.30;;
5876;SDS011;2964;42.144;24.730;2023-03-03T01:21:07;60.87;;;27.57;;
5876;SDS011;2964;42.144;24.730;2023-03-03T01:23:34;46.07;;;26.73;;
5876;SDS011;2964;42.144;24.730;2023-03-03T01:26:01;58.27;;;28.23;;
5876;SDS011;2964;42.144;24.730;2023-03-03T01:28:28;52.67;;;29.13;;
5876;SDS011;2964;42.144;24.730;2023-03-03T01:30:58;56.10;;;28.63;;
5876;SDS011;2964;42.144;24.730;2023-03-03T01:33:25;56.80;;;28.37;;
5876;SDS011;2964;42.144;24.730;2023-03-03T01:35:52;53.30;;;28.87;;
5876;SDS011;2964;42.144;24.730;2023-03-03T01:38:20;52.13;;;28.43;;
5876;SDS011;2964;42.144;24.730;2023-03-03T01:40:51;49.47;;;29.37;;
5876;SDS011;2964;42.144;24.730;2023-03-03T01:43:18;49.17;;;28.20;;
5876;SDS011;2964;42.144;24.730;2023-03-03T01:48:56;57.00;;;32.25;;
5876;SDS011;2964;42.144;24.730;2023-03-03T01:51:28;48.70;;;27.83;;
5876;SDS011;2964;42.144;24.730;2023-03-03T01:53:58;50.83;;;27.93;;
5876;SDS011;2964;42.144;24.730;2023-03-03T01:56:27;50.03;;;27.13;;
5876;SDS011;2964;42.144;24.730;2023-03-03T01:58:56;54.60;;;28.10;;
5876;SDS011;2964;42.144;24.730;2023-03-03T02:01:26;46.13;;;27.00;;
5876;SDS011;2964;42.144;24.730;2023-03-03T02:03:55;46.83;;;26.80;;
5876;SDS011;2964;42.144;24.730;2023-03-03T02:06:23;53.10;;;27.57;;
5876;SDS011;2964;42.144;24.730;2023-03-03T02:08:53;53.13;;;30.03;;
5876;SDS011;2964;42.144;24.730;2023-03-03T02:11:27;48.00;;;28.43;;
5876;SDS011;2964;42.144;24.730;2023-03-03T02:13:56;49.47;;;28.73;;
5876;SDS011;2964;42.144;24.730;2023-03-03T02:16:24;48.73;;;28.77;;
5876;SDS011;2964;42.144;24.730;2023-03-03T02:18:51;50.33;;;29.73;;
5876;SDS011;2964;42.144;24.730;2023-03-03T02:21:19;53.03;;;28.23;;
5876;SDS011;2964;42.144;24.730;2023-03-03T02:23:48;47.27;;;28.20;;
5876;SDS011;2964;42.144;24.730;2023-03-03T02:26:20;50.27;;;27.30;;
5876;SDS011;2964;42.144;24.730;2023-03-03T02:28:48;50.97;;;27.93;;
5876;SDS011;2964;42.144;24.730;2023-03-03T02:31:16;59.23;;;29.50;;
5876;SDS011;2964;42.144;24.730;2023-03-03T02:33:46;56.83;;;30.17;;
5876;SDS011;2964;42.144;24.730;2023-03-03T02:36:15;49.27;;;26.33;;
5876;SDS011;2964;42.144;24.730;2023-03-03T02:38:43;44.47;;;25.57;;
5876;SDS011;2964;42.144;24.730;2023-03-03T02:41:15;43.17;;;24.47;;
5876;SDS011;2964;42.144;24.730;2023-03-03T02:43:53;46.20;;;26.00;;
5876;SDS011;2964;42.144;24.730;2023-03-03T02:46:24;50.83;;;25.40;;
5876;SDS011;2964;42.144;24.730;2023-03-03T02:48:51;46.60;;;24.60;;
5876;SDS011;2964;42.144;24.730;2023-03-03T02:51:17;43.73;;;23.57;;
5876;SDS011;2964;42.144;24.730;2023-03-03T02:53:45;50.60;;;25.50;;
5876;SDS011;2964;42.144;24.730;2023-03-03T02:56:11;53.27;;;25.40;;
5876;SDS011;2964;42.144;24.730;2023-03-03T02:58:39;58.20;;;26.13;;
5876;SDS011;2964;42.144;24.730;2023-03-03T03:01:06;54.23;;;23.77;;
5876;SDS011;2964;42.144;24.730;2023-03-03T03:03:33;55.13;;;26.70;;
5876;SDS011;2964;42.144;24.730;2023-03-03T03:05:59;44.77;;;25.73;;
5876;SDS011;2964;42.144;24.730;2023-03-03T03:08:26;48.93;;;25.40;;
5876;SDS011;2964;42.144;24.730;2023-03-03T03:10:53;48.57;;;26.70;;
5876;SDS011;2964;42.144;24.730;2023-03-03T03:13:21;50.07;;;26.67;;
5876;SDS011;2964;42.144;24.730;2023-03-03T03:15:50;55.03;;;26.50;;
5876;SDS011;2964;42.144;24.730;2023-03-03T03:18:17;47.70;;;27.20;;
5876;SDS011;2964;42.144;24.730;2023-03-03T03:20:44;55.00;;;27.93;;
5876;SDS011;2964;42.144;24.730;2023-03-03T03:23:10;56.23;;;28.47;;
5876;SDS011;2964;42.144;24.730;2023-03-03T03:25:37;64.97;;;29.67;;
5876;SDS011;2964;42.144;24.730;2023-03-03T03:28:09;52.53;;;28.10;;
5876;SDS011;2964;42.144;24.730;2023-03-03T03:30:36;54.43;;;30.03;;
5876;SDS011;2964;42.144;24.730;2023-03-03T03:33:05;55.77;;;30.40;;
5876;SDS011;2964;42.144;24.730;2023-03-03T03:35:32;64.53;;;30.23;;
5876;SDS011;2964;42.144;24.730;2023-03-03T03:38:00;54.67;;;30.60;;
5876;SDS011;2964;42.144;24.730;2023-03-03T03:40:26;71.17;;;32.27;;
5876;SDS011;2964;42.144;24.730;2023-03-03T03:42:53;58.80;;;29.47;;
5876;SDS011;2964;42.144;24.730;2023-03-03T03:45:20;63.83;;;31.80;;
5876;SDS011;2964;42.144;24.730;2023-03-03T03:47:47;66.93;;;31.83;;
5876;SDS011;2964;42.144;24.730;2023-03-03T03:50:15;57.33;;;29.77;;
5876;SDS011;2964;42.144;24.730;2023-03-03T03:52:42;56.73;;;30.30;;
5876;SDS011;2964;42.144;24.730;2023-03-03T03:55:09;54.93;;;30.07;;
5876;SDS011;2964;42.144;24.730;2023-03-03T03:57:36;54.03;;;30.60;;
5876;SDS011;2964;42.144;24.730;2023-03-03T04:00:03;57.07;;;31.93;;
5876;SDS011;2964;42.144;24.730;2023-03-03T04:02:30;58.37;;;32.33;;
5876;SDS011;2964;42.144;24.730;2023-03-03T04:04:57;60.80;;;32.87;;
5876;SDS011;2964;42.144;24.730;2023-03-03T04:07:25;68.27;;;33.07;;
5876;SDS011;2964;42.144;24.730;2023-03-03T04:09:52;56.70;;;31.63;;
5876;SDS011;2964;42.144;24.730;2023-03-03T04:12:18;64.13;;;31.40;;
5876;SDS011;2964;42.144;24.730;2023-03-03T04:14:45;53.03;;;29.57;;
5876;SDS011;2964;42.144;24.730;2023-03-03T04:17:14;62.17;;;30.87;;
5876;SDS011;2964;42.144;24.730;2023-03-03T04:19:42;59.03;;;29.90;;
5876;SDS011;2964;42.144;24.730;2023-03-03T04:22:09;62.43;;;31.33;;
5876;SDS011;2964;42.144;24.730;2023-03-03T04:24:38;53.70;;;32.33;;
5876;SDS011;2964;42.144;24.730;2023-03-03T04:27:04;54.17;;;30.60;;
5876;SDS011;2964;42.144;24.730;2023-03-03T04:29:33;57.10;;;30.63;;
5876;SDS011;2964;42.144;24.730;2023-03-03T04:31:59;51.40;;;30.63;;
5876;SDS011;2964;42.144;24.730;2023-03-03T04:34:26;56.57;;;30.73;;
5876;SDS011;2964;42.144;24.730;2023-03-03T04:36:53;64.83;;;32.27;;
5876;SDS011;2964;42.144;24.730;2023-03-03T04:39:20;58.87;;;30.97;;
5876;SDS011;2964;42.144;24.730;2023-03-03T04:41:48;54.67;;;30.87;;
5876;SDS011;2964;42.144;24.730;2023-03-03T04:44:14;57.93;;;32.37;;
5876;SDS011;2964;42.144;24.730;2023-03-03T04:46:41;58.97;;;32.50;;
5876;SDS011;2964;42.144;24.730;2023-03-03T04:49:08;72.63;;;31.87;;
5876;SDS011;2964;42.144;24.730;2023-03-03T04:51:34;68.20;;;32.17;;
5876;SDS011;2964;42.144;24.730;2023-03-03T04:54:01;64.07;;;32.87;;
5876;SDS011;2964;42.144;24.730;2023-03-03T04:56:28;61.43;;;33.60;;
5876;SDS011;2964;42.144;24.730;2023-03-03T04:58:57;63.30;;;33.83;;
5876;SDS011;2964;42.144;24.730;2023-03-03T05:01:23;66.63;;;33.57;;
5876;SDS011;2964;42.144;24.730;2023-03-03T05:03:50;67.13;;;34.70;;
5876;SDS011;2964;42.144;24.730;2023-03-03T05:06:17;68.27;;;32.83;;
5876;SDS011;2964;42.144;24.730;2023-03-03T05:08:43;60.13;;;32.50;;
5876;SDS011;2964;42.144;24.730;2023-03-03T05:11:10;60.40;;;31.50;;
5876;SDS011;2964;42.144;24.730;2023-03-03T05:13:38;57.97;;;32.27;;
5876;SDS011;2964;42.144;24.730;2023-03-03T05:16:06;63.43;;;32.97;;
5876;SDS011;2964;42.144;24.730;2023-03-03T05:18:33;53.67;;;30.13;;
5876;SDS011;2964;42.144;24.730;2023-03-03T05:21:00;63.90;;;31.77;;
5876;SDS011;2964;42.144;24.730;2023-03-03T05:23:27;62.30;;;32.67;;
5876;SDS011;2964;42.144;24.730;2023-03-03T05:25:54;65.60;;;30.67;;
5876;SDS011;2964;42.144;24.730;2023-03-03T05:28:20;57.93;;;29.83;;
5876;SDS011;2964;42.144;24.730;2023-03-03T05:30:47;56.03;;;31.57;;
5876;SDS011;2964;42.144;24.730;2023-03-03T05:33:15;56.30;;;28.53;;
5876;SDS011;2964;42.144;24.730;2023-03-03T05:35:43;58.70;;;30.80;;
5876;SDS011;2964;42.144;24.730;2023-03-03T05:38:10;62.53;;;32.17;;
5876;SDS011;2964;42.144;24.730;2023-03-03T05:40:37;66.53;;;33.30;;
5876;SDS011;2964;42.144;24.730;2023-03-03T05:43:04;69.83;;;34.70;;
5876;SDS011;2964;42.144;24.730;2023-03-03T05:45:31;63.27;;;32.80;;
5876;SDS011;2964;42.144;24.730;2023-03-03T05:47:59;57.63;;;33.23;;
5876;SDS011;2964;42.144;24.730;2023-03-03T05:50:27;54.60;;;31.63;;
5876;SDS011;2964;42.144;24.730;2023-03-03T05:52:54;61.67;;;32.23;;
5876;SDS011;2964;42.144;24.730;2023-03-03T05:55:20;57.47;;;31.10;;
5876;SDS011;2964;42.144;24.730;2023-03-03T05:57:47;57.50;;;33.13;;
5876;SDS011;2964;42.144;24.730;2023-03-03T06:00:14;53.17;;;31.80;;
5876;SDS011;2964;42.144;24.730;2023-03-03T06:02:42;55.60;;;29.30;;
5876;SDS011;2964;42.144;24.730;2023-03-03T06:05:09;58.17;;;31.53;;
5876;SDS011;2964;42.144;24.730;2023-03-03T06:07:37;54.10;;;31.77;;
5876;SDS011;2964;42.144;24.730;2023-03-03T06:10:05;58.77;;;31.30;;
5876;SDS011;2964;42.144;24.730;2023-03-03T06:12:32;56.30;;;31.93;;
5876;SDS011;2964;42.144;24.730;2023-03-03T06:14:59;54.43;;;31.60;;
5876;SDS011;2964;42.144;24.730;2023-03-03T06:17:26;59.57;;;31.70;;
5876;SDS011;2964;42.144;24.730;2023-03-03T06:19:52;50.07;;;30.30;;
5876;SDS011;2964;42.144;24.730;2023-03-03T06:22:19;50.30;;;29.53;;
5876;SDS011;2964;42.144;24.730;2023-03-03T06:24:47;53.70;;;29.47;;
5876;SDS011;2964;42.144;24.730;2023-03-03T06:27:14;38.23;;;24.90;;
5876;SDS011;2964;42.144;24.730;2023-03-03T06:29:40;42.53;;;26.33;;
5876;SDS011;2964;42.144;24.730;2023-03-03T06:32:07;48.73;;;27.33;;
5876;SDS011;2964;42.144;24.730;2023-03-03T06:34:34;43.50;;;27.77;;
5876;SDS011;2964;42.144;24.730;2023-03-03T06:37:00;45.97;;;28.07;;
5876;SDS011;2964;42.144;24.730;2023-03-03T06:39:27;45.13;;;28.00;;
5876;SDS011;2964;42.144;24.730;2023-03-03T06:41:55;44.13;;;28.23;;
5876;SDS011;2964;42.144;24.730;2023-03-03T06:44:22;50.47;;;29.77;;
5876;SDS011;2964;42.144;24.730;2023-03-03T06:46:48;49.20;;;27.73;;
5876;SDS011;2964;42.144;24.730;2023-03-03T06:49:15;48.87;;;27.17;;
5876;SDS011;2964;42.144;24.730;2023-03-03T06:51:42;46.27;;;28.63;;
5876;SDS011;2964;42.144;24.730;2023-03-03T06:54:11;52.67;;;27.73;;
5876;SDS011;2964;42.144;24.730;2023-03-03T06:56:39;38.00;;;25.47;;
5876;SDS011;2964;42.144;24.730;2023-03-03T06:59:10;39.80;;;25.70;;
5876;SDS011;2964;42.144;24.730;2023-03-03T07:01:38;54.77;;;27.53;;
5876;SDS011;2964;42.144;24.730;2023-03-03T07:04:16;49.57;;;27.33;;
5876;SDS011;2964;42.144;24.730;2023-03-03T07:06:50;45.73;;;26.97;;
5876;SDS011;2964;42.144;24.730;2023-03-03T07:09:19;46.77;;;27.33;;
5876;SDS011;2964;42.144;24.730;2023-03-03T07:11:48;44.73;;;27.00;;
5876;SDS011;2964;42.144;24.730;2023-03-03T07:14:17;47.43;;;26.07;;
5876;SDS011;2964;42.144;24.730;2023-03-03T07:16:45;40.20;;;25.63;;
5876;SDS011;2964;42.144;24.730;2023-03-03T07:19:15;43.53;;;25.83;;
5876;SDS011;2964;42.144;24.730;2023-03-03T07:21:47;40.33;;;25.27;;
5876;SDS011;2964;42.144;24.730;2023-03-03T07:24:23;41.20;;;25.20;;
5876;SDS011;2964;42.144;24.730;2023-03-03T07:26:53;37.90;;;24.57;;
5876;SDS011;2964;42.144;24.730;2023-03-03T07:29:26;36.37;;;24.53;;
5876;SDS011;2964;42.144;24.730;2023-03-03T07:31:55;39.90;;;25.23;;
5876;SDS011;2964;42.144;24.730;2023-03-03T07:34:23;47.20;;;29.10;;
5876;SDS011;2964;42.144;24.730;2023-03-03T07:36:53;47.03;;;27.90;;
5876;SDS011;2964;42.144;24.730;2023-03-03T07:39:25;43.90;;;25.50;;
5876;SDS011;2964;42.144;24.730;2023-03-03T07:42:01;39.90;;;24.80;;
5876;SDS011;2964;42.144;24.730;2023-03-03T07:44:47;37.73;;;25.60;;
5876;SDS011;2964;42.144;24.730;2023-03-03T07:47:20;45.30;;;25.20;;
5876;SDS011;2964;42.144;24.730;2023-03-03T07:49:49;51.43;;;28.87;;
5876;SDS011;2964;42.144;24.730;2023-03-03T07:52:24;45.63;;;21.37;;
5876;SDS011;2964;42.144;24.730;2023-03-03T07:54:53;31.27;;;20.53;;
5876;SDS011;2964;42.144;24.730;2023-03-03T07:57:23;33.00;;;20.27;;
5876;SDS011;2964;42.144;24.730;2023-03-03T07:59:53;27.43;;;18.73;;
5876;SDS011;2964;42.144;24.730;2023-03-03T08:02:29;29.50;;;19.63;;
5876;SDS011;2964;42.144;24.730;2023-03-03T08:05:11;30.30;;;19.47;;
5876;SDS011;2964;42.144;24.730;2023-03-03T08:07:52;32.27;;;21.23;;
5876;SDS011;2964;42.144;24.730;2023-03-03T08:10:28;34.33;;;19.97;;
5876;SDS011;2964;42.144;24.730;2023-03-03T08:13:00;33.80;;;20.17;;
5876;SDS011;2964;42.144;24.730;2023-03-03T08:15:36;33.00;;;19.43;;
5876;SDS011;2964;42.144;24.730;2023-03-03T08:18:07;28.63;;;17.73;;
5876;SDS011;2964;42.144;24.730;2023-03-03T08:20:44;24.83;;;16.27;;
5876;SDS011;2964;42.144;24.730;2023-03-03T08:23:13;31.80;;;17.80;;
5876;SDS011;2964;42.144;24.730;2023-03-03T08:25:41;29.97;;;18.23;;
5876;SDS011;2964;42.144;24.730;2023-03-03T08:28:08;25.43;;;16.80;;
5876;SDS011;2964;42.144;24.730;2023-03-03T08:30:39;30.03;;;18.03;;
5876;SDS011;2964;42.144;24.730;2023-03-03T08:33:06;27.03;;;16.40;;
5876;SDS011;2964;42.144;24.730;2023-03-03T08:35:33;26.50;;;18.10;;
5876;SDS011;2964;42.144;24.730;2023-03-03T08:37:59;35.63;;;18.23;;
5876;SDS011;2964;42.144;24.730;2023-03-03T08:40:26;30.70;;;17.23;;
5876;SDS011;2964;42.144;24.730;2023-03-03T08:42:53;28.43;;;18.80;;
5876;SDS011;2964;42.144;24.730;2023-03-03T08:45:20;32.73;;;20.57;;
5876;SDS011;2964;42.144;24.730;2023-03-03T08:47:48;33.00;;;20.47;;
5876;SDS011;2964;42.144;24.730;2023-03-03T08:50:15;36.37;;;20.20;;
5876;SDS011;2964;42.144;24.730;2023-03-03T08:52:42;30.57;;;19.90;;
5876;SDS011;2964;42.144;24.730;2023-03-03T08:55:09;27.50;;;20.07;;
5876;SDS011;2964;42.144;24.730;2023-03-03T08:57:36;37.30;;;21.70;;
5876;SDS011;2964;42.144;24.730;2023-03-03T09:00:05;31.07;;;21.70;;
5876;SDS011;2964;42.144;24.730;2023-03-03T09:02:33;34.53;;;22.87;;
5876;SDS011;2964;42.144;24.730;2023-03-03T09:05:01;32.93;;;22.13;;
5876;SDS011;2964;42.144;24.730;2023-03-03T09:07:28;41.07;;;23.33;;
5876;SDS011;2964;42.144;24.730;2023-03-03T09:09:55;37.20;;;24.90;;
5876;SDS011;2964;42.144;24.730;2023-03-03T09:12:23;40.47;;;27.17;;
5876;SDS011;2964;42.144;24.730;2023-03-03T09:14:55;39.67;;;25.97;;
5876;SDS011;2964;42.144;24.730;2023-03-03T09:17:24;42.90;;;28.07;;
5876;SDS011;2964;42.144;24.730;2023-03-03T09:19:54;40.73;;;29.17;;
5876;SDS011;2964;42.144;24.730;2023-03-03T09:22:28;49.47;;;31.67;;
5876;SDS011;2964;42.144;24.730;2023-03-03T09:25:01;48.40;;;31.00;;
5876;SDS011;2964;42.144;24.730;2023-03-03T09:27:39;43.23;;;29.47;;
5876;SDS011;2964;42.144;24.730;2023-03-03T09:30:11;44.07;;;29.23;;
5876;SDS011;2964;42.144;24.730;2023-03-03T09:32:54;46.93;;;28.23;;
5876;SDS011;2964;42.144;24.730;2023-03-03T09:35:29;41.20;;;28.83;;
5876;SDS011;2964;42.144;24.730;2023-03-03T09:38:04;43.17;;;29.00;;
5876;SDS011;2964;42.144;24.730;2023-03-03T09:40:48;42.50;;;27.80;;
5876;SDS011;2964;42.144;24.730;2023-03-03T09:43:26;46.30;;;28.50;;
5876;SDS011;2964;42.144;24.730;2023-03-03T09:46:02;44.47;;;27.13;;
5876;SDS011;2964;42.144;24.730;2023-03-03T09:48:37;33.93;;;24.40;;
5876;SDS011;2964;42.144;24.730;2023-03-03T09:51:28;38.00;;;24.57;;
5876;SDS011;2964;42.144;24.730;2023-03-03T09:54:21;37.30;;;23.33;;
5876;SDS011;2964;42.144;24.730;2023-03-03T09:57:04;31.97;;;21.93;;
5876;SDS011;2964;42.144;24.730;2023-03-03T09:59:39;33.47;;;21.90;;
5876;SDS011;2964;42.144;24.730;2023-03-03T10:05:13;35.20;;;21.17;;
5876;SDS011;2964;42.144;24.730;2023-03-03T10:07:49;32.37;;;21.37;;
5876;SDS011;2964;42.144;24.730;2023-03-03T10:10:30;33.17;;;21.20;;
5876;SDS011;2964;42.144;24.730;2023-03-03T10:13:13;27.50;;;20.40;;
5876;SDS011;2964;42.144;24.730;2023-03-03T10:15:53;28.80;;;21.17;;
5876;SDS011;2964;42.144;24.730;2023-03-03T10:18:35;32.03;;;19.90;;
5876;SDS011;2964;42.144;24.730;2023-03-03T10:21:09;26.90;;;20.13;;
5876;SDS011;2964;42.144;24.730;2023-03-03T10:23:45;29.87;;;21.17;;
5876;SDS011;2964;42.144;24.730;2023-03-03T10:26:22;28.30;;;20.60;;
5876;SDS011;2964;42.144;24.730;2023-03-03T10:29:09;26.67;;;21.10;;
5876;SDS011;2964;42.144;24.730;2023-03-03T10:31:55;32.13;;;21.97;;
5876;SDS011;2964;42.144;24.730;2023-03-03T10:34:41;29.10;;;21.23;;
5876;SDS011;2964;42.144;24.730;2023-03-03T10:37:29;30.67;;;21.57;;
5876;SDS011;2964;42.144;24.730;2023-03-03T10:40:06;30.90;;;20.30;;
5876;SDS011;2964;42.144;24.730;2023-03-03T10:42:54;30.23;;;20.47;;
5876;SDS011;2964;42.144;24.730;2023-03-03T10:45:44;28.93;;;20.70;;
5876;SDS011;2964;42.144;24.730;2023-03-03T10:48:36;27.30;;;20.07;;
5876;SDS011;2964;42.144;24.730;2023-03-03T10:51:23;29.37;;;20.60;;
5876;SDS011;2964;42.144;24.730;2023-03-03T10:53:58;26.20;;;19.60;;
5876;SDS011;2964;42.144;24.730;2023-03-03T10:56:37;30.50;;;20.20;;
5876;SDS011;2964;42.144;24.730;2023-03-03T10:59:20;31.23;;;20.43;;
5876;SDS011;2964;42.144;24.730;2023-03-03T11:02:07;31.40;;;20.40;;
5876;SDS011;2964;42.144;24.730;2023-03-03T11:04:47;23.50;;;19.10;;
5876;SDS011;2964;42.144;24.730;2023-03-03T11:07:38;25.40;;;19.67;;
5876;SDS011;2964;42.144;24.730;2023-03-03T11:13:02;28.50;;;18.77;;
5876;SDS011;2964;42.144;24.730;2023-03-03T11:15:41;26.13;;;18.80;;
5876;SDS011;2964;42.144;24.730;2023-03-03T11:18:20;34.57;;;19.93;;
5876;SDS011;2964;42.144;24.730;2023-03-03T11:20:58;24.40;;;17.57;;
5876;SDS011;2964;42.144;24.730;2023-03-03T11:26:36;25.90;;;19.70;;
5876;SDS011;2964;42.144;24.730;2023-03-03T11:29:16;28.17;;;20.23;;
5876;SDS011;2964;42.144;24.730;2023-03-03T11:31:59;26.40;;;19.70;;
5876;SDS011;2964;42.144;24.730;2023-03-03T11:34:39;31.07;;;20.73;;
5876;SDS011;2964;42.144;24.730;2023-03-03T11:37:19;27.70;;;19.80;;
5876;SDS011;2964;42.144;24.730;2023-03-03T11:39:49;29.27;;;20.97;;
5876;SDS011;2964;42.144;24.730;2023-03-03T11:42:22;29.23;;;20.13;;
5876;SDS011;2964;42.144;24.730;2023-03-03T11:44:52;26.03;;;18.10;;
5876;SDS011;2964;42.144;24.730;2023-03-03T11:47:24;22.67;;;17.57;;
5876;SDS011;2964;42.144;24.730;2023-03-03T11:49:56;22.50;;;17.33;;
5876;SDS011;2964;42.144;24.730;2023-03-03T11:52:28;33.23;;;21.00;;
5876;SDS011;2964;42.144;24.730;2023-03-03T11:55:03;23.30;;;18.60;;
5876;SDS011;2964;42.144;24.730;2023-03-03T11:57:35;25.20;;;20.07;;
5876;SDS011;2964;42.144;24.730;2023-03-03T12:00:24;21.27;;;17.70;;
5876;SDS011;2964;42.144;24.730;2023-03-03T12:03:12;21.87;;;17.40;;
5876;SDS011;2964;42.144;24.730;2023-03-03T12:05:47;26.13;;;18.83;;
5876;SDS011;2964;42.144;24.730;2023-03-03T12:08:22;20.60;;;17.33;;
5876;SDS011;2964;42.144;24.730;2023-03-03T12:11:02;28.63;;;19.27;;
5876;SDS011;2964;42.144;24.730;2023-03-03T12:13:39;21.13;;;17.83;;
5876;SDS011;2964;42.144;24.730;2023-03-03T12:16:17;20.23;;;16.77;;
5876;SDS011;2964;42.144;24.730;2023-03-03T12:19:02;24.00;;;17.57;;
5876;SDS011;2964;42.144;24.730;2023-03-03T12:21:42;24.10;;;17.77;;
5876;SDS011;2964;42.144;24.730;2023-03-03T12:24:30;19.23;;;17.20;;
5876;SDS011;2964;42.144;24.730;2023-03-03T12:27:09;23.90;;;17.23;;
5876;SDS011;2964;42.144;24.730;2023-03-03T12:29:40;23.03;;;17.13;;
5876;SDS011;2964;42.144;24.730;2023-03-03T12:32:17;21.17;;;16.10;;
5876;SDS011;2964;42.144;24.730;2023-03-03T12:34:57;18.20;;;15.47;;
5876;SDS011;2964;42.144;24.730;2023-03-03T12:37:37;21.87;;;15.97;;
5876;SDS011;2964;42.144;24.730;2023-03-03T12:40:13;23.40;;;17.30;;
5876;SDS011;2964;42.144;24.730;2023-03-03T12:45:35;21.63;;;16.40;;
5876;SDS011;2964;42.144;24.730;2023-03-03T12:48:13;18.70;;;16.43;;
5876;SDS011;2964;42.144;24.730;2023-03-03T12:50:48;20.67;;;17.47;;
5876;SDS011;2964;42.144;24.730;2023-03-03T12:53:29;21.43;;;17.00;;
5876;SDS011;2964;42.144;24.730;2023-03-03T12:56:13;22.07;;;17.23;;
5876;SDS011;2964;42.144;24.730;2023-03-03T12:58:50;24.53;;;18.33;;
5876;SDS011;2964;42.144;24.730;2023-03-03T13:01:29;18.40;;;16.47;;
5876;SDS011;2964;42.144;24.730;2023-03-03T13:04:07;21.50;;;17.13;;
5876;SDS011;2964;42.144;24.730;2023-03-03T13:06:41;26.97;;;17.17;;
5876;SDS011;2964;42.144;24.730;2023-03-03T13:09:21;19.10;;;17.10;;
5876;SDS011;2964;42.144;24.730;2023-03-03T13:12:01;22.07;;;16.80;;
5876;SDS011;2964;42.144;24.730;2023-03-03T13:14:37;21.33;;;15.87;;
5876;SDS011;2964;42.144;24.730;2023-03-03T13:17:16;19.23;;;17.23;;
5876;SDS011;2964;42.144;24.730;2023-03-03T13:19:49;19.60;;;15.33;;
5876;SDS011;2964;42.144;24.730;2023-03-03T13:22:26;18.93;;;15.67;;
5876;SDS011;2964;42.144;24.730;2023-03-03T13:25:01;19.40;;;15.60;;
5876;SDS011;2964;42.144;24.730;2023-03-03T13:27:33;17.70;;;15.13;;
5876;SDS011;2964;42.144;24.730;2023-03-03T13:30:07;17.50;;;14.37;;
5876;SDS011;2964;42.144;24.730;2023-03-03T13:32:42;19.70;;;16.87;;
5876;SDS011;2964;42.144;24.730;2023-03-03T13:35:17;18.53;;;15.93;;
5876;SDS011;2964;42.144;24.730;2023-03-03T13:37:56;18.70;;;14.73;;
5876;SDS011;2964;42.144;24.730;2023-03-03T13:40:24;19.87;;;16.27;;
5876;SDS011;2964;42.144;24.730;2023-03-03T13:42:59;27.10;;;17.13;;
5876;SDS011;2964;42.144;24.730;2023-03-03T13:45:29;21.70;;;15.77;;
5876;SDS011;2964;42.144;24.730;2023-03-03T13:48:06;18.60;;;15.23;;
5876;SDS011;2964;42.144;24.730;2023-03-03T13:50:46;20.73;;;16.63;;
5876;SDS011;2964;42.144;24.730;2023-03-03T13:53:31;21.30;;;15.43;;
5876;SDS011;2964;42.144;24.730;2023-03-03T13:56:08;18.47;;;15.53;;
5876;SDS011;2964;42.144;24.730;2023-03-03T13:58:48;15.10;;;13.53;;
5876;SDS011;2964;42.144;24.730;2023-03-03T14:01:27;14.60;;;13.07;;
5876;SDS011;2964;42.144;24.730;2023-03-03T14:04:04;17.80;;;14.27;;
5876;SDS011;2964;42.144;24.730;2023-03-03T14:06:35;14.37;;;12.93;;
5876;SDS011;2964;42.144;24.730;2023-03-03T14:09:17;18.13;;;13.37;;
5876;SDS011;2964;42.144;24.730;2023-03-03T14:11:53;15.97;;;14.13;;
5876;SDS011;2964;42.144;24.730;2023-03-03T14:14:32;14.43;;;13.07;;
5876;SDS011;2964;42.144;24.730;2023-03-03T14:17:11;15.27;;;13.70;;
5876;SDS011;2964;42.144;24.730;2023-03-03T14:19:43;16.10;;;13.67;;
5876;SDS011;2964;42.144;24.730;2023-03-03T14:22:15;15.10;;;13.40;;
5876;SDS011;2964;42.144;24.730;2023-03-03T14:24:58;14.93;;;13.40;;
5876;SDS011;2964;42.144;24.730;2023-03-03T14:27:32;11.87;;;11.07;;
5876;SDS011;2964;42.144;24.730;2023-03-03T14:33:04;12.40;;;11.30;;
5876;SDS011;2964;42.144;24.730;2023-03-03T14:35:43;11.57;;;10.67;;
5876;SDS011;2964;42.144;24.730;2023-03-03T14:38:16;13.97;;;12.27;;
5876;SDS011;2964;42.144;24.730;2023-03-03T14:40:46;12.73;;;11.63;;
5876;SDS011;2964;42.144;24.730;2023-03-03T14:43:22;12.17;;;10.87;;
5876;SDS011;2964;42.144;24.730;2023-03-03T14:45:50;11.93;;;10.93;;
5876;SDS011;2964;42.144;24.730;2023-03-03T14:48:18;13.23;;;11.83;;
5876;SDS011;2964;42.144;24.730;2023-03-03T14:50:48;13.40;;;12.30;;
5876;SDS011;2964;42.144;24.730;2023-03-03T14:53:19;12.87;;;11.73;;
5876;SDS011;2964;42.144;24.730;2023-03-03T14:56:06;14.20;;;12.77;;
5876;SDS011;2964;42.144;24.730;2023-03-03T14:58:40;12.80;;;10.77;;
5876;SDS011;2964;42.144;24.730;2023-03-03T15:01:12;11.80;;;10.97;;
5876;SDS011;2964;42.144;24.730;2023-03-03T15:03:43;11.47;;;10.57;;
5876;SDS011;2964;42.144;24.730;2023-03-03T15:06:25;13.33;;;12.13;;
5876;SDS011;2964;42.144;24.730;2023-03-03T15:08:54;11.97;;;10.90;;
5876;SDS011;2964;42.144;24.730;2023-03-03T15:11:26;13.93;;;12.67;;
5876;SDS011;2964;42.144;24.730;2023-03-03T15:14:03;13.63;;;12.37;;
5876;SDS011;2964;42.144;24.730;2023-03-03T15:16:37;13.23;;;12.07;;
5876;SDS011;2964;42.144;24.730;2023-03-03T15:22:10;17.27;;;12.53;;
5876;SDS011;2964;42.144;24.730;2023-03-03T15:24:44;14.17;;;12.97;;